Nogales International Airport
KOLS : now visible

Airfield :











YOU CAN JOIN US ON...

 
LOGIN :

Register | Disclaimer

   EN    FR    IT 

 









Legend :    VFR   Marginal VFR   IFR   Intensive IFR   Very Intensive IFR
Visi :
Ceiling :
>= 8 km
>= 3000ft
5 to 8 km
1000 to 3000 ft
1500m to 5 km
500 to 1000 ft
800 to 1500m
200 to 500 ft
< 800m
< 200 ft
Symbols :   Thunderstorms  Fog  Heavy snow  Heavy precipitations  Wind > 20 kt







- Airport Elevation : 3955 ft


KOLS - Nogales International

CURRENT METAR :
  • 252354Z AUTO VRB06KT 10SM CLR 32/16 A3005 RMK AO2 SLP106 T03170161 10322 20272 56020 $

EXPIRED METARs :
  • 252254Z AUTO 34005KT 10SM CLR 32/17 A3008 RMK AO2 SLP112 T03220167 $
  • 252154Z AUTO VRB04KT 10SM CLR 31/18 A3009 RMK AO2 LTG DSNT E AND SE SLP120 T03110178 $

TAF KOLS
Valid from the 26 at 00:00 until the 27 at 00:00 UTC


252333Z 2600/2624 30009KT P6SM SCT050 BKN110 BKN200
FM260200 21005KT P6SM FEW050 SCT120 BKN200
FM260600 VRB03KT P6SM SCT120 BKN250
FM262000 25008KT P6SM SCT060 BKN250
No reported NOTAMs for that airfield.



MET'MAP, your aeronautical weather chart ! - Copyright ORBIFLY December 2007 - Disclaimer

ORBIFLY MET'MAP TEAM :

Programming & Development : Alexandra Zaïnal
Concept & Development : Baudouin d'Aumeries
Co-Development & Prog : Marc-Olivier Méhu
Technical & hardware support : Manuel Goepfert

Contact : metmap@orbifly.com




SOURCES & CREDITS :

   NOAA       Earth
Advisory